x

Western Caribbean - 195 Nm Wsw Of Negril Jamiaca (42057) Wave Buoy

12:50 - Fri 1st Aug 2014 All times are UTC.

  • Sig Wave height 2.6ft
  • Swell Direction
  • Peak Period 8s
  • Average Period 5s
  • Wind
    11mph, 13mph gusts
  • Sea Temp 84°f
  • Aire Temp 83°f
  • Sea Pressure 1013.5mb

More Historic Weather Station data

Upgrade to MSW Pro to gain access to the past 30 days of data for over 8000 Wavebouys and Weather Stations around the globe.

Join Pro

Comparision Forecast

View Surf forecast
   
vie 08/01 12:50 2.5ft 8s 5s 11 13 mph 1013.5mb 84f 83f
jue 07/31 11:50 2.5ft 7s 5s 11 13 mph 1013mb 85f 84f
10:50 2.5ft 8s 5s 11 13 mph 1012.5mb 85f 84f
9:50 2.5ft 8s 5s 11 13 mph 1012.8mb 84f 84f
8:50 2.5ft 7s 5s 11 13 mph 1013.3mb 85f 84f
7:50 2.5ft 7s 5s 9 11 mph 1013.7mb 85f 84f
6:50 2.5ft 7s 5s 9 11 mph 1014.2mb 84f 83f
5:50 2.5ft 7s 5s 11 13 mph 1014.4mb 84f 83f
4:50 2.5ft 7s 5s 11 13 mph 1014.8mb 84f 83f
3:50 2.5ft 8s 6s 9 11 mph 1014.8mb 84f 83f
2:50 2.5ft 7s 6s 9 11 mph 1014.7mb 84f 83f
1:50 2.5ft 8s 6s 9 11 mph 1014.4mb 84f 83f
12:50 2.5ft 7s 6s 7 9 mph 1014.2mb 83f 83f
11:50 2.5ft 8s 6s 7 9 mph 1013.9mb 83f 82f
10:50 2.5ft 7s 6s 7
mph
1013.6mb 83f 82f
9:50 2.5ft 8s 6s 4 7 mph 1013.4mb 83f 82f
8:50 2.5ft 8s 5s 2 4 mph 1013.6mb 83f 83f
7:50 2.5ft 7s 5s 4 7 mph 1014.2mb 83f 83f
6:50 2.5ft 8s 6s 7 9 mph 1014.6mb 83f 83f
5:50 3ft 8s 6s 7 9 mph 1015.2mb 83f 83f
4:50 2ft 8s 5s 9
mph
1015.3mb 83f 83f
3:50 2.5ft 8s 6s 7
mph
1015.6mb 84f 83f
2:50 2.5ft 8s 5s 7 9 mph 1015.4mb 84f 83f
1:50 2.5ft 8s 5s 7 9 mph 1014.8mb 83f 83f
12:50 2.5ft 7s 5s 9 11 mph 1014.8mb 84f 83f
mié 07/30 11:50 2.5ft 8s 6s 9 11 mph 1014.4mb 84f 83f
10:50 2.5ft 8s 6s 9
mph
1014.2mb 85f 84f
9:50 3ft 8s 6s 9 11 mph 1013.8mb 85f 84f
8:50 3ft 7s 6s 11 13 mph 1014.2mb 85f 84f
7:50 3.5ft 8s 6s 11
mph
1014.5mb 85f 84f
6:50 3ft 8s 6s 9
mph
1015mb 85f 84f
5:50 3.5ft 8s 6s 9 11 mph 1015mb 83f 84f
4:50 3.5ft 7s 6s 9 11 mph 1015.2mb 84f 84f
3:50 3.5ft 8s 6s 4 7 mph 1015.2mb 84f 83f
2:50 3.5ft 8s 6s 4
mph
1015.2mb 83f 84f
1:50 3.5ft 8s 6s 7 9 mph 1015.3mb 83f 83f
12:50 4.5ft 8s 6s 7 9 mph 1015mb 83f 83f
11:50 3.5ft 8s 6s 9 11 mph 1015.1mb 83f 83f
10:50 3.5ft 8s 6s 9
mph
1014.7mb 83f 82f
9:50 4ft 9s 6s 7
mph
1014.7mb 83f 82f
8:50 4ft 8s 6s 7
mph
1014.7mb 83f 82f
7:50 4.5ft 8s 6s 7 9 mph 1015.2mb 83f 83f
6:50 4.5ft 9s 6s 7 9 mph 1015.5mb 83f 83f
5:50 4.5ft 8s 6s 7 9 mph 1016.2mb 83f 83f
4:50 4.5ft 9s 6s 9 11 mph 1016.4mb 83f 83f
3:50 4ft 8s 6s 11 13 mph 1016.3mb 83f 83f
2:50 3.5ft 8s 6s 11
mph
1016.3mb 83f 83f
1:50 4ft 8s 5s 11 13 mph 1016mb 83f 83f
12:50 4ft 8s 5s 11 13 mph 1015.7mb 83f 83f
mar 07/29 11:50 4.5ft 8s 5s 11
mph
1015.2mb 83f 83f
10:50 4.5ft 8s 5s 11 13 mph 1015mb 83f 84f
9:50 4ft 9s 5s 11 13 mph 1015.2mb 83f 84f
8:50 3.5ft 9s 5s 13 16 mph 1014.9mb 83f 83f
7:50 4ft 9s 6s 13 16 mph 1014.7mb 84f 83f
6:50 4ft 9s 6s 13 16 mph 1015mb 84f 83f
5:50 4.5ft 8s 6s 13 18 mph 1015.2mb 84f 83f
4:50 4ft 8s 6s 11 13 mph 1015.6mb 84f 83f
3:50 4ft 9s 6s 13 16 mph 1015.8mb 83f 83f
2:50 4ft 9s 6s 11 13 mph 1016.2mb 83f 83f
1:50 3.5ft 9s 6s 11 13 mph 1016mb 83f 83f
12:50 4ft 9s 6s 11 13 mph 1015.6mb 83f 83f
11:50 4.5ft 9s 6s 13 16 mph 1015.5mb 83f 83f
10:50 4.5ft 9s 6s 13 16 mph 1015.2mb 83f 82f
9:50 4.5ft 9s 6s 13 16 mph 1014.8mb 83f 83f
8:50 4.5ft 8s 6s 13 16 mph 1014.7mb 83f 82f
7:50 4.5ft 9s 6s 11 13 mph 1015.3mb 83f 83f
6:50 4.5ft 8s 6s 13
mph
1015.7mb 83f 83f
5:50 4.5ft 9s 5s 13 16 mph 1016.3mb 83f 83f
4:50 5ft 8s 6s 16 18 mph 1016.5mb 83f 83f
3:50 5ft 8s 5s 13 16 mph 1017mb 83f 83f
2:50 5ft 7s 5s 18 20 mph 1016.6mb 83f 83f
1:50 5.5ft 6s 5s 16 18 mph 1016.1mb 83f 83f
12:50 5ft 8s 5s 16 18 mph 1015.7mb 83f 84f
lun 07/28 11:50 5ft 6s 5s 16 18 mph 1015mb 83f 83f
10:50 4ft 6s 5s 16 20 mph 1014.6mb 83f 84f
9:50 4ft 8s 5s 18 22 mph 1014.2mb 83f 84f
8:50 4.5ft 8s 5s 18 20 mph 1014.3mb 83f 84f
7:50 4.5ft 7s 5s 18 20 mph 1014.7mb 83f 84f
6:50 4ft 8s 5s 18 20 mph 1015.2mb 83f 84f
5:50 3.5ft 8s 5s 16 18 mph 1015.9mb 83f 83f
4:50 4ft 8s 5s 16 18 mph 1016.3mb 83f 83f
3:50 4ft 8s 5s 18 20 mph 1016.3mb 83f 83f
2:50 4.5ft 9s 5s 18 20 mph 1016.1mb 83f 83f
1:50 4.5ft 8s 5s 18 22 mph 1015.9mb 83f 83f
12:50 5ft 7s 5s 16 18 mph 1015.7mb 83f 83f
11:50 4.5ft 8s 5s 18 20 mph 1015.2mb 83f 83f
10:50 4ft 9s 5s 18 20 mph 1014.6mb 83f 83f
9:50 4ft 8s 5s 18 22 mph 1014.2mb 83f 83f
8:50 4.5ft 9s 5s 18 22 mph 1014.1mb 83f 83f
7:50 4.5ft 8s 5s 18 22 mph 1014.2mb 83f 83f
6:50 4.5ft 8s 5s 18 22 mph 1014.7mb 83f 83f
5:50 4.5ft 8s 5s 18 20 mph 1015.7mb 83f 83f
4:50 5ft 7s 5s 18 20 mph 1016.6mb 83f 83f
3:50 5ft 6s 5s 18 22 mph 1017mb 83f 83f
2:50 4.5ft 8s 5s 16 20 mph 1016.6mb 83f 83f